Time;durP1;ratioP1;P1;durP2;ratioP2;P2;SDS_P1;SDS_P2;PMS_P1;PMS_P2;Temp;Humidity;BMP_temperature;BMP_pressure;BME280_temperature;BME280_humidity;BME280_pressure;Samples;Min_cycle;Max_cycle;Signal;HPM_P1;HPM_P2
2022/01/10 00:00:56;;;;;;;13.30;5.10;;;;;;;2.04;90.01;99709.75;4918555;29;20434;-74
2022/01/10 00:03:23;;;;;;;12.75;4.82;;;;;;;2.02;89.93;99715.22;4918590;29;20487;-74
2022/01/10 00:05:48;;;;;;;16.75;5.68;;;;;;;1.97;89.98;99720.19;4919034;29;20036;-74
2022/01/10 00:08:14;;;;;;;15.60;5.28;;;;;;;1.93;90.15;99718.06;4918438;29;20099;-74
2022/01/10 00:10:41;;;;;;;13.07;5.85;;;;;;;1.92;90.57;99727.88;4918758;29;20395;-74
2022/01/10 00:13:06;;;;;;;20.60;6.85;;;;;;;1.93;90.38;99718.91;4918546;29;20036;-75
2022/01/10 00:15:32;;;;;;;18.25;6.25;;;;;;;1.91;90.50;99728.03;4918587;29;20527;-75
2022/01/10 00:17:58;;;;;;;16.95;7.30;;;;;;;1.91;89.76;99725.38;4918589;29;20399;-75
2022/01/10 00:20:26;;;;;;;13.07;5.53;;;;;;;1.92;90.64;99735.00;4918375;29;20032;-75
2022/01/10 00:22:51;;;;;;;12.88;6.18;;;;;;;1.90;90.27;99737.00;4916985;29;20267;-75
2022/01/10 00:25:20;;;;;;;17.30;5.82;;;;;;;1.88;90.19;99736.31;4918377;29;20028;-75
2022/01/10 00:27:46;;;;;;;20.63;7.10;;;;;;;1.86;90.44;99739.16;4916895;29;20123;-75
2022/01/10 00:30:12;;;;;;;16.60;6.53;;;;;;;1.83;90.23;99735.97;4918490;29;20453;-75
2022/01/10 00:32:43;;;;;;;15.73;5.55;;;;;;;1.83;90.52;99738.63;4917886;29;20138;-75
2022/01/10 00:35:09;;;;;;;17.23;6.05;;;;;;;1.80;90.42;99742.44;4917027;29;20032;-75
2022/01/10 00:37:41;;;;;;;11.75;5.43;;;;;;;1.79;90.00;99747.97;4918280;29;20040;-75
2022/01/10 00:40:07;;;;;;;18.30;6.28;;;;;;;1.84;90.52;99751.75;4918191;29;20031;-75
2022/01/10 00:42:32;;;;;;;17.70;6.18;;;;;;;1.82;90.55;99761.72;4917984;29;20034;-75
2022/01/10 00:45:07;;;;;;;18.10;6.47;;;;;;;1.80;90.52;99765.53;4917831;29;20086;-75
2022/01/10 00:47:32;;;;;;;22.15;7.47;;;;;;;1.76;90.66;99765.03;4917645;29;20690;-76
2022/01/10 00:49:58;;;;;;;13.33;5.73;;;;;;;1.77;90.78;99771.19;4917679;29;20114;-75
2022/01/10 00:52:23;;;;;;;20.60;7.13;;;;;;;1.77;90.58;99779.16;4916599;29;20376;-76
2022/01/10 00:54:48;;;;;;;15.60;7.65;;;;;;;1.72;90.56;99785.78;4917914;29;20110;-75
2022/01/10 00:57:14;;;;;;;14.95;6.07;;;;;;;1.67;90.67;99788.09;4917769;29;20511;-75
2022/01/10 00:59:39;;;;;;;20.17;7.43;;;;;;;1.65;90.50;99783.94;4917520;29;20032;-75
2022/01/10 01:02:05;;;;;;;16.27;6.70;;;;;;;1.64;91.14;99790.25;4917082;29;20043;-75
2022/01/10 01:04:32;;;;;;;23.27;8.18;;;;;;;1.63;90.96;99793.88;4917377;29;20803;-75
2022/01/10 01:07:01;;;;;;;20.40;7.05;;;;;;;1.60;90.60;99795.06;4917430;29;20424;-75
2022/01/10 01:09:29;;;;;;;19.98;6.63;;;;;;;1.61;91.04;99793.25;4917325;29;20048;-75
2022/01/10 01:14:37;;;;;;;20.88;6.10;;;;;;;1.59;91.07;99806.69;4917728;29;20472;-75
2022/01/10 01:17:26;;;;;;;20.33;7.25;;;;;;;1.57;90.74;99805.19;4917364;29;20039;-75
2022/01/10 01:25:07;;;;;;;16.05;6.15;;;;;;;1.58;91.17;99815.63;4917088;29;20034;-75
2022/01/10 01:27:40;;;;;;;18.30;6.05;;;;;;;1.57;91.05;99815.78;4915979;29;20471;-77
2022/01/10 01:30:10;;;;;;;18.42;5.78;;;;;;;1.54;91.08;99824.91;4915560;29;20041;-75
2022/01/10 01:32:35;;;;;;;15.13;5.55;;;;;;;1.55;91.00;99831.06;4917498;29;20112;-76
2022/01/10 01:35:06;;;;;;;15.60;5.80;;;;;;;1.55;90.90;99833.72;4915674;29;20132;-75
2022/01/10 01:37:32;;;;;;;12.57;5.10;;;;;;;1.54;90.67;99850.63;4916053;29;20406;-76
2022/01/10 01:39:58;;;;;;;;;;;;;;;1.55;91.08;99852.28;4917771;29;20040;-76
2022/01/10 01:44:56;;;;;;;13.77;5.47;;;;;;;1.54;90.90;99863.91;4917515;29;20520;-76
2022/01/10 01:47:21;;;;;;;12.85;5.25;;;;;;;1.55;90.90;99860.25;4915950;29;20036;-76
2022/01/10 01:49:50;;;;;;;18.80;5.53;;;;;;;1.55;90.66;99871.72;4916856;29;20028;-75
2022/01/10 01:52:27;;;;;;;20.02;6.10;;;;;;;1.54;90.48;99877.19;4915650;29;20109;-75
2022/01/10 01:54:53;;;;;;;15.35;4.95;;;;;;;1.51;90.97;99878.31;4917110;29;20033;-76
2022/01/10 01:57:19;;;;;;;;;;;;;;;1.50;90.46;99883.78;4917226;29;20035;-76
2022/01/10 01:59:44;;;;;;;16.45;5.07;;;;;;;1.47;91.17;99887.59;4917293;29;19915;-75
2022/01/10 02:02:10;;;;;;;13.40;5.22;;;;;;;1.50;90.98;99891.75;4915376;29;20483;-75
2022/01/10 02:04:40;;;;;;;18.55;6.82;;;;;;;1.49;90.80;99896.25;4916537;29;20376;-75
2022/01/10 02:07:11;;;;;;;12.63;5.80;;;;;;;1.46;90.62;99896.56;4923367;23;20069;-76
2022/01/10 02:09:37;;;;;;;16.80;6.70;;;;;;;1.50;90.66;99905.03;4897843;29;20032;-76
2022/01/10 02:12:02;;;;;;;16.23;5.60;;;;;;;1.49;90.50;99906.84;4897903;29;20029;-75
2022/01/10 02:14:31;;;;;;;14.25;6.15;;;;;;;1.56;90.58;99912.38;4901899;29;20436;-75
2022/01/10 02:17:05;;;;;;;15.98;5.93;;;;;;;1.55;90.51;99914.19;4885207;29;20376;-76
2022/01/10 02:19:33;;;;;;;16.88;6.15;;;;;;;1.55;90.56;99921.31;4882850;29;20044;-75
2022/01/10 02:21:59;;;;;;;19.30;6.72;;;;;;;1.53;90.75;99923.31;4901834;29;20384;-76
2022/01/10 02:24:24;;;;;;;16.60;6.97;;;;;;;1.52;90.49;99924.28;4901872;29;20040;-75
2022/01/10 02:26:51;;;;;;;16.80;5.65;;;;;;;1.52;90.93;99930.44;4901435;29;20045;-75
2022/01/10 02:32:26;;;;;;;16.25;5.18;;;;;;;1.48;90.61;99936.22;4901507;29;20075;-76
2022/01/10 02:34:53;;;;;;;20.77;6.78;;;;;;;1.47;90.69;99937.19;4884604;29;20029;-76
2022/01/10 02:37:50;;;;;;;25.35;7.05;;;;;;;1.50;90.57;99940.38;4901149;29;20119;-76
2022/01/10 02:40:18;;;;;;;26.10;6.40;;;;;;;1.54;90.72;99951.53;4885827;29;20053;-76
2022/01/10 02:42:44;;;;;;;18.55;6.15;;;;;;;1.54;90.48;99956.84;4901096;29;20029;-75
2022/01/10 02:45:09;;;;;;;18.27;6.33;;;;;;;1.51;90.98;99955.31;4901099;29;20562;-77
2022/01/10 02:47:36;;;;;;;16.25;7.00;;;;;;;1.50;90.96;99968.75;4901287;29;20355;-75
2022/01/10 02:50:03;;;;;;;19.60;6.75;;;;;;;1.49;90.91;99970.56;4901465;29;20468;-75
2022/01/10 02:52:28;;;;;;;13.68;5.88;;;;;;;1.51;91.01;99975.72;4900973;29;20472;-75
2022/01/10 02:54:53;;;;;;;16.17;6.78;;;;;;;1.50;90.76;99969.59;4901090;29;20123;-75
2022/01/10 02:57:21;;;;;;;19.25;7.60;;;;;;;1.48;91.00;99973.38;4901216;29;20461;-75
2022/01/10 02:59:46;;;;;;;16.95;5.78;;;;;;;1.48;90.56;99982.19;4901213;29;20071;-75
2022/01/10 03:02:19;;;;;;;21.73;6.75;;;;;;;1.46;90.98;99981.50;4901323;29;20437;-75
2022/01/10 03:04:44;;;;;;;17.92;6.65;;;;;;;1.48;90.88;99989.31;4900735;29;20044;-76
2022/01/10 03:07:10;;;;;;;16.35;6.25;;;;;;;1.44;90.74;99996.75;4900503;29;20052;-76
2022/01/10 03:09:36;;;;;;;17.77;7.07;;;;;;;1.45;91.04;99998.41;4900868;29;20036;-76
2022/01/10 03:12:11;;;;;;;23.10;7.88;;;;;;;1.42;91.17;99998.75;4883998;29;20535;-76
2022/01/10 03:14:37;;;;;;;16.92;6.60;;;;;;;1.40;91.06;100000.72;4883577;29;20044;-76
2022/01/10 03:17:03;;;;;;;16.02;5.53;;;;;;;1.38;91.37;100003.53;4900519;29;20040;-76
2022/01/10 03:19:31;;;;;;;19.58;6.63;;;;;;;1.38;91.13;100015.97;4900623;29;20093;-75
2022/01/10 03:21:57;;;;;;;21.48;7.35;;;;;;;1.36;90.94;100015.31;4900267;29;20025;-75
2022/01/10 03:24:22;;;;;;;18.50;5.97;;;;;;;1.35;91.44;100017.13;4899862;29;20048;-76
2022/01/10 03:26:50;;;;;;;17.35;6.63;;;;;;;1.36;91.13;100024.09;4900293;29;20296;-76
2022/01/10 03:29:16;;;;;;;28.08;7.85;;;;;;;1.44;90.95;100025.94;4883307;29;20024;-76
2022/01/10 03:31:41;;;;;;;24.70;7.07;;;;;;;1.41;91.39;100026.28;4900899;29;20043;-76
2022/01/10 03:34:10;;;;;;;19.95;6.93;;;;;;;1.42;91.56;100029.78;4900063;29;20028;-77
2022/01/10 03:36:41;;;;;;;16.10;6.68;;;;;;;1.39;91.27;100030.91;4900420;29;20033;-76
2022/01/10 03:39:07;;;;;;;18.65;6.95;;;;;;;1.38;90.87;100031.91;4900052;29;20032;-75
2022/01/10 03:41:36;;;;;;;15.23;6.53;;;;;;;1.38;91.33;100034.56;4900239;29;20392;-75
2022/01/10 03:44:03;;;;;;;17.25;6.70;;;;;;;1.41;91.33;100044.03;4883478;29;20400;-75
2022/01/10 03:46:33;;;;;;;21.25;7.80;;;;;;;1.39;90.99;100036.22;4900372;29;20457;-76
2022/01/10 03:49:02;;;;;;;22.92;6.25;;;;;;;1.40;91.09;100043.22;4883378;29;20080;-76
2022/01/10 03:51:28;;;;;;;15.68;6.55;;;;;;;1.39;91.03;100044.19;4900191;29;20457;-76
2022/01/10 03:53:57;;;;;;;15.25;6.20;;;;;;;1.38;90.92;100048.66;4900160;29;20112;-76
2022/01/10 03:56:25;;;;;;;19.58;7.40;;;;;;;1.38;91.13;100053.97;4883850;29;20441;-76
2022/01/10 03:58:56;;;;;;;20.17;7.03;;;;;;;1.36;91.25;100055.13;4900476;29;20033;-75
2022/01/10 04:01:24;;;;;;;17.25;7.18;;;;;;;1.41;91.07;100062.63;4900691;29;20486;-75
2022/01/10 04:03:49;;;;;;;18.77;7.85;;;;;;;1.36;90.96;100065.72;4900800;29;20123;-76
2022/01/10 04:06:15;;;;;;;20.60;8.05;;;;;;;1.37;91.10;100073.53;4900422;29;20536;-75
2022/01/10 04:08:40;;;;;;;19.42;7.30;;;;;;;1.35;91.21;100072.88;4900784;29;20092;-75
2022/01/10 04:11:09;;;;;;;19.27;6.72;;;;;;;1.39;91.42;100065.44;4900449;29;20396;-76
2022/01/10 04:13:35;;;;;;;16.38;7.65;;;;;;;1.43;90.96;100072.09;4882088;29;20069;-75
2022/01/10 04:16:10;;;;;;;19.45;6.90;;;;;;;1.46;91.22;100078.91;4900134;29;20108;-76
2022/01/10 04:18:52;;;;;;;20.20;7.70;;;;;;;1.39;91.09;100092.81;4900270;29;20040;-76
2022/01/10 04:21:23;;;;;;;18.73;8.18;;;;;;;1.36;90.91;100097.59;4900151;29;20060;-75
2022/01/10 04:23:55;;;;;;;19.00;7.28;;;;;;;1.34;90.75;100102.22;4900630;29;20036;-75
2022/01/10 04:26:34;;;;;;;17.90;7.35;;;;;;;1.31;91.27;100102.50;4882724;29;20037;-75
2022/01/10 04:29:05;;;;;;;20.15;7.18;;;;;;;1.30;91.35;100108.81;4883381;29;20098;-75
2022/01/10 04:31:31;;;;;;;20.52;7.95;;;;;;;1.29;90.77;100112.44;4899662;29;20042;-75
2022/01/10 04:33:56;;;;;;;21.15;6.82;;;;;;;1.32;90.98;100125.41;4899593;29;20032;-76
2022/01/10 04:36:22;;;;;;;18.05;6.45;;;;;;;1.33;91.27;100127.94;4899427;29;20048;-75
2022/01/10 04:38:56;;;;;;;16.58;6.80;;;;;;;1.34;91.31;100137.56;4883377;29;20024;-75
2022/01/10 04:41:24;;;;;;;19.48;7.45;;;;;;;1.35;90.75;100149.84;4899894;29;20441;-75
2022/01/10 04:43:55;;;;;;;19.77;7.20;;;;;;;1.32;91.18;100155.44;4899414;29;20040;-75
2022/01/10 04:46:21;;;;;;;18.67;7.57;;;;;;;1.34;90.93;100157.97;4900035;29;20123;-76
2022/01/10 04:48:49;;;;;;;20.80;7.40;;;;;;;1.36;91.06;100167.44;4899746;29;20160;-75
2022/01/10 04:51:17;;;;;;;20.77;8.07;;;;;;;1.38;91.14;100172.59;4899885;29;20028;-75
2022/01/10 04:53:45;;;;;;;18.38;6.63;;;;;;;1.36;91.15;100171.91;4882977;29;20044;-76
2022/01/10 04:56:12;;;;;;;14.98;7.07;;;;;;;1.38;91.18;100180.56;4899336;29;20056;-75
2022/01/10 04:58:39;;;;;;;22.13;7.18;;;;;;;1.38;90.93;100176.09;4899130;29;20028;-75
2022/01/10 05:01:05;;;;;;;16.75;6.85;;;;;;;1.39;90.76;100187.53;4882329;29;20033;-77
2022/01/10 05:03:36;;;;;;;19.10;7.95;;;;;;;1.40;90.73;100189.22;4881861;29;20044;-75
2022/01/10 05:06:02;;;;;;;16.50;7.32;;;;;;;1.38;90.75;100199.16;4898919;29;20123;-76
2022/01/10 05:08:27;;;;;;;28.45;8.70;;;;;;;1.35;90.91;100197.63;4898399;29;20120;-76
2022/01/10 05:10:53;;;;;;;13.82;6.80;;;;;;;1.34;90.92;100203.09;4898767;29;20036;-75
2022/01/10 05:13:20;;;;;;;;;;;;;;;1.33;90.89;100210.22;4898893;29;20069;-75
2022/01/10 05:15:47;;;;;;;17.77;6.40;;;;;;;1.34;90.73;100206.56;4881830;29;20392;-74
2022/01/10 05:18:14;;;;;;;18.88;7.22;;;;;;;1.32;90.98;100213.00;4898363;29;20036;-75
2022/01/10 05:20:40;;;;;;;22.77;8.10;;;;;;;1.33;90.87;100222.66;4881583;29;20404;-76
2022/01/10 05:23:05;;;;;;;19.35;7.20;;;;;;;1.31;90.90;100224.63;4898262;29;20112;-76
2022/01/10 05:25:36;;;;;;;21.45;6.80;;;;;;;1.28;90.99;100228.41;4898337;29;20037;-75
2022/01/10 05:28:06;;;;;;;21.63;9.38;;;;;;;1.27;90.84;100234.69;4881182;29;20489;-75
2022/01/10 05:30:32;;;;;;;16.13;6.15;;;;;;;1.27;91.18;100244.47;4898129;29;20032;-75
2022/01/10 05:32:57;;;;;;;17.08;6.85;;;;;;;1.27;90.86;100247.97;4881079;29;20040;-75
2022/01/10 05:35:23;;;;;;;22.85;7.47;;;;;;;1.29;90.94;100247.81;4898299;29;20045;-75
2022/01/10 05:37:48;;;;;;;17.95;7.75;;;;;;;1.28;91.16;100248.78;4881091;29;20142;-76
2022/01/10 05:40:15;;;;;;;15.37;7.40;;;;;;;1.28;90.96;100267.38;4881533;29;20036;-75
2022/01/10 05:42:40;;;;;;;18.52;8.32;;;;;;;1.29;91.01;100261.09;4898185;29;20332;-75
2022/01/10 05:45:09;;;;;;;13.25;7.30;;;;;;;1.30;91.13;100281.34;4899924;29;20036;-75
2022/01/10 05:47:40;;;;;;;20.20;7.88;;;;;;;1.25;90.94;100284.47;4900538;29;20036;-75
2022/01/10 05:50:06;;;;;;;21.13;7.80;;;;;;;1.24;90.96;100282.78;4900030;29;20032;-75
2022/01/10 05:52:32;;;;;;;20.17;7.80;;;;;;;1.24;91.26;100280.13;4899808;29;20039;-76
2022/01/10 05:55:05;;;;;;;15.93;7.38;;;;;;;1.25;91.31;100294.25;4882725;29;20040;-75
2022/01/10 05:57:30;;;;;;;16.23;6.53;;;;;;;1.25;91.11;100302.19;4899489;29;20437;-76
2022/01/10 05:59:59;;;;;;;20.33;7.78;;;;;;;1.24;91.02;100305.84;4882162;29;20033;-76
2022/01/10 06:02:24;;;;;;;20.95;7.82;;;;;;;1.23;90.79;100304.16;4899961;29;20065;-76
2022/01/10 06:04:50;;;;;;;17.80;7.10;;;;;;;1.21;91.13;100312.28;4883772;29;20028;-75
2022/01/10 06:07:20;;;;;;;16.48;7.22;;;;;;;1.20;91.32;100318.56;4887709;29;20063;-76
2022/01/10 06:09:45;;;;;;;23.83;7.88;;;;;;;1.19;91.52;100319.53;4902133;29;20084;-74
2022/01/10 06:12:13;;;;;;;21.48;7.40;;;;;;;1.20;91.08;100326.53;4900429;29;20036;-75
2022/01/10 06:14:46;;;;;;;19.98;7.28;;;;;;;1.25;91.69;100329.56;4898259;29;20052;-75
2022/01/10 06:17:11;;;;;;;31.98;8.10;;;;;;;1.25;91.12;100331.41;4881638;29;20032;-75
2022/01/10 06:19:36;;;;;;;26.27;11.43;;;;;;;1.24;91.28;100341.19;4881879;29;20039;-75
2022/01/10 06:22:02;;;;;;;21.47;6.80;;;;;;;1.21;91.10;100335.31;4897656;29;20288;-76
2022/01/10 06:24:28;;;;;;;19.27;7.47;;;;;;;1.20;91.10;100341.59;4897257;29;20257;-75
2022/01/10 06:26:54;;;;;;;21.00;8.20;;;;;;;1.17;91.09;100360.47;4897697;29;20035;-75
2022/01/10 06:29:19;;;;;;;19.90;7.60;;;;;;;1.17;91.49;100363.97;4897279;29;20037;-75
2022/01/10 06:31:44;;;;;;;18.70;8.18;;;;;;;1.21;91.03;100364.50;4897351;29;20032;-75
2022/01/10 06:34:10;;;;;;;15.23;7.03;;;;;;;1.23;91.35;100360.75;4897644;29;20037;-75
2022/01/10 06:36:35;;;;;;;23.40;8.45;;;;;;;1.18;91.22;100370.09;4897220;29;20272;-76
2022/01/10 06:39:01;;;;;;;20.33;7.80;;;;;;;1.19;91.65;100367.31;4897296;29;20032;-75
2022/01/10 06:41:26;;;;;;;25.40;6.97;;;;;;;1.16;91.08;100388.00;4897060;29;20106;-75
2022/01/10 06:43:51;;;;;;;22.65;7.55;;;;;;;1.15;91.67;100386.31;4897167;29;20115;-75
2022/01/10 06:46:17;;;;;;;18.50;7.15;;;;;;;1.14;91.30;100389.94;4880631;29;20080;-75
2022/01/10 06:48:42;;;;;;;18.87;7.33;;;;;;;1.15;91.75;100396.94;4897242;29;20132;-76
2022/01/10 06:51:08;;;;;;;20.73;7.35;;;;;;;1.14;91.67;100400.56;4880379;29;20312;-75
2022/01/10 06:53:36;;;;;;;20.48;8.50;;;;;;;1.14;91.44;100396.09;4897713;29;20033;-76
2022/01/10 06:56:01;;;;;;;24.60;7.60;;;;;;;1.15;91.49;100407.53;4880294;29;20032;-76
2022/01/10 06:58:26;;;;;;;17.77;6.97;;;;;;;1.16;91.79;100417.19;4897548;29;20119;-76
2022/01/10 07:00:52;;;;;;;24.60;7.88;;;;;;;1.18;91.49;100424.03;4899811;29;20115;-76
2022/01/10 07:03:17;;;;;;;20.13;8.00;;;;;;;1.17;91.33;100422.34;4900862;29;20068;-75
2022/01/10 07:05:42;;;;;;;21.97;8.73;;;;;;;1.17;91.37;100432.13;4900620;29;20100;-76
2022/01/10 07:08:08;;;;;;;17.83;7.10;;;;;;;1.16;91.29;100435.75;4900578;29;20348;-75
2022/01/10 07:10:33;;;;;;;20.73;5.90;;;;;;;1.18;91.52;100444.41;4883986;29;20305;-75
2022/01/10 07:12:59;;;;;;;19.50;7.25;;;;;;;1.16;91.55;100446.38;4883752;29;20119;-75
2022/01/10 07:15:26;;;;;;;22.95;8.48;;;;;;;1.17;91.47;100458.66;4900764;29;20040;-75
2022/01/10 07:17:51;;;;;;;22.52;6.82;;;;;;;1.19;91.58;100469.97;4899926;29;20029;-75
2022/01/10 07:20:16;;;;;;;17.88;6.53;;;;;;;1.15;91.76;100468.59;4900102;29;20039;-76
2022/01/10 07:22:42;;;;;;;17.40;6.57;;;;;;;1.12;91.75;100469.69;4900178;29;20464;-75
2022/01/10 07:25:08;;;;;;;20.10;7.45;;;;;;;1.23;91.75;100484.66;4899864;29;20123;-75
2022/01/10 07:27:34;;;;;;;14.30;5.88;;;;;;;1.17;91.41;100493.16;4900412;29;20376;-75
2022/01/10 07:30:00;;;;;;;18.00;7.68;;;;;;;1.17;91.76;100504.63;4900019;29;20036;-75
2022/01/10 07:32:29;;;;;;;17.55;8.50;;;;;;;1.29;91.32;100498.16;4882799;29;20040;-76
2022/01/10 07:34:55;;;;;;;12.93;5.80;;;;;;;1.46;91.76;100506.34;4899623;29;20112;-76
2022/01/10 07:37:20;;;;;;;20.10;6.28;;;;;;;1.57;91.98;100512.34;4899661;29;20040;-75
2022/01/10 07:39:46;;;;;;;17.63;6.72;;;;;;;1.51;90.63;100520.03;4900140;29;20123;-75
2022/01/10 07:42:11;;;;;;;16.13;6.30;;;;;;;1.69;91.17;100529.78;4899993;29;20462;-75
2022/01/10 07:44:36;;;;;;;28.13;8.27;;;;;;;1.36;90.62;100539.09;4899574;29;20054;-75
2022/01/10 07:47:07;;;;;;;22.08;7.15;;;;;;;1.30;90.99;100546.78;4899663;29;20269;-75
2022/01/10 07:49:33;;;;;;;23.88;8.45;;;;;;;1.58;90.78;100548.56;4899599;29;20043;-75
2022/01/10 07:51:58;;;;;;;17.33;7.75;;;;;;;1.53;90.04;100558.75;4899789;29;20032;-75
2022/01/10 07:54:25;;;;;;;20.40;6.37;;;;;;;1.47;90.16;100556.66;4899221;29;20045;-75
2022/01/10 07:56:51;;;;;;;22.08;7.60;;;;;;;1.58;90.58;100556.53;4899339;29;20325;-75
2022/01/10 07:59:16;;;;;;;16.98;7.15;;;;;;;1.62;89.80;100565.00;4899105;29;20032;-75
2022/01/10 08:01:42;;;;;;;19.35;7.00;;;;;;;1.58;90.82;100571.63;4882438;29;20036;-75
2022/01/10 08:04:07;;;;;;;17.27;7.20;;;;;;;1.48;90.05;100579.59;4899422;29;20108;-75
2022/01/10 08:06:32;;;;;;;22.77;8.27;;;;;;;1.58;89.81;100584.88;4899573;29;20045;-76
2022/01/10 08:08:58;;;;;;;21.67;6.05;;;;;;;1.44;89.92;100591.47;4899151;29;20068;-75
2022/01/10 08:11:26;;;;;;;17.67;7.05;;;;;;;1.48;90.01;100589.38;4898973;29;20029;-75
2022/01/10 08:13:52;;;;;;;23.88;7.53;;;;;;;1.36;90.41;100604.63;4899387;29;20099;-75
2022/01/10 08:16:17;;;;;;;18.83;6.40;;;;;;;1.44;89.70;100596.78;4882181;29;20520;-75
2022/01/10 08:18:43;;;;;;;14.10;5.57;;;;;;;1.78;89.93;100605.13;4899124;29;20112;-75
2022/01/10 08:21:08;;;;;;;16.50;6.78;;;;;;;1.74;89.57;100606.38;4899871;29;20051;-75
2022/01/10 08:23:33;;;;;;;21.65;6.82;;;;;;;1.56;89.47;100616.91;4898882;29;20040;-75
2022/01/10 08:25:59;;;;;;;16.95;6.15;;;;;;;1.61;90.10;100619.94;4899302;29;20368;-75
2022/01/10 08:28:24;;;;;;;15.05;6.13;;;;;;;1.69;89.48;100625.41;4898881;29;20037;-75
2022/01/10 08:30:50;;;;;;;17.67;6.30;;;;;;;1.53;88.83;100634.94;4898743;29;20059;-76
2022/01/10 08:33:15;;;;;;;19.95;6.88;;;;;;;1.48;89.92;100645.97;4882019;29;20100;-76
2022/01/10 08:35:40;;;;;;;16.65;6.28;;;;;;;1.54;91.22;100645.41;4898993;29;20036;-76
2022/01/10 08:38:06;;;;;;;16.63;6.35;;;;;;;1.65;88.93;100652.38;4899076;29;20123;-76
2022/01/10 08:40:32;;;;;;;20.15;6.57;;;;;;;1.76;88.04;100654.06;4898551;29;20540;-76
2022/01/10 08:42:57;;;;;;;20.17;6.85;;;;;;;1.82;88.91;100654.31;4898654;29;20028;-75
2022/01/10 08:45:23;;;;;;;15.07;5.97;;;;;;;1.81;89.09;100654.44;4898747;29;20392;-75
2022/01/10 08:47:48;;;;;;;16.92;6.00;;;;;;;2.12;88.00;100660.41;4898686;29;20041;-75
2022/01/10 08:50:14;;;;;;;17.98;7.90;;;;;;;1.86;88.57;100658.34;4898489;29;20028;-76
2022/01/10 08:52:40;;;;;;;17.55;6.13;;;;;;;1.95;88.74;100659.34;4898697;29;20040;-76
2022/01/10 08:55:08;;;;;;;18.10;6.25;;;;;;;2.12;88.73;100673.69;4898622;29;20028;-76
2022/01/10 08:57:34;;;;;;;20.95;6.35;;;;;;;2.06;89.46;100675.09;4898351;29;20033;-76
2022/01/10 09:00:00;;;;;;;18.60;7.60;;;;;;;2.15;88.98;100668.91;4898585;29;20384;-76
2022/01/10 09:02:26;;;;;;;18.23;6.07;;;;;;;2.15;88.09;100668.09;4898539;29;20056;-76
2022/01/10 09:04:52;;;;;;;15.55;7.07;;;;;;;2.13;88.21;100675.38;4898877;29;20384;-76
2022/01/10 09:07:18;;;;;;;17.65;6.45;;;;;;;2.43;87.94;100677.78;4897880;29;20048;-76
2022/01/10 09:09:44;;;;;;;16.17;6.32;;;;;;;2.34;87.39;100675.97;4898417;29;20511;-76
2022/01/10 09:12:11;;;;;;;20.55;8.52;;;;;;;2.34;87.18;100687.44;4898307;29;20039;-76
2022/01/10 09:14:36;;;;;;;19.10;7.28;;;;;;;2.53;88.90;100683.03;4898399;29;20420;-76
2022/01/10 09:17:03;;;;;;;16.70;6.88;;;;;;;2.69;87.42;100688.56;4898268;29;20028;-76
2022/01/10 09:19:28;;;;;;;16.30;6.60;;;;;;;2.64;86.34;100690.84;4898057;29;20033;-76
2022/01/10 09:21:54;;;;;;;15.35;5.47;;;;;;;2.50;86.57;100697.50;4897734;29;20043;-76
2022/01/10 09:24:19;;;;;;;14.00;6.15;;;;;;;2.73;85.69;100700.59;4898515;29;20055;-76
2022/01/10 09:26:45;;;;;;;12.98;5.78;;;;;;;2.50;86.26;100710.78;4898558;29;20067;-76
2022/01/10 09:29:10;;;;;;;16.20;5.93;;;;;;;2.40;86.98;100715.28;4898965;29;20409;-76
2022/01/10 09:31:36;;;;;;;18.42;6.47;;;;;;;2.36;87.09;100713.91;4898239;29;20344;-76
2022/01/10 09:34:02;;;;;;;17.50;5.38;;;;;;;2.35;87.19;100713.06;4898121;29;20045;-76
2022/01/10 09:36:28;;;;;;;;;;;;;;;2.32;87.56;100717.84;4898744;29;20035;-76
2022/01/10 09:38:55;;;;;;;15.55;5.43;;;;;;;2.31;87.69;100714.34;4898491;29;19917;-76
2022/01/10 09:41:21;;;;;;;14.75;5.78;;;;;;;2.31;87.56;100710.84;4881445;29;20039;-76
2022/01/10 09:44:00;;;;;;;19.58;6.10;;;;;;;2.34;87.54;100719.34;4897602;29;20036;-76
2022/01/10 09:46:28;;;;;;;20.63;6.63;;;;;;;2.40;87.43;100732.09;4898002;29;20048;-76
2022/01/10 09:48:55;;;;;;;17.98;7.97;;;;;;;2.41;87.26;100736.44;4897861;29;20040;-75
2022/01/10 09:51:26;;;;;;;22.65;6.28;;;;;;;2.52;87.21;100740.72;4897435;29;20063;-76
2022/01/10 09:53:52;;;;;;;17.52;5.60;;;;;;;2.57;86.96;100750.94;4897982;29;20435;-76
2022/01/10 09:56:17;;;;;;;14.55;5.18;;;;;;;2.63;86.85;100761.00;4897892;29;20068;-76
2022/01/10 09:58:43;;;;;;;15.35;6.25;;;;;;;2.59;86.69;100762.25;4897746;29;20123;-76
2022/01/10 10:01:08;;;;;;;16.15;6.10;;;;;;;2.59;86.82;100763.09;4897476;29;20333;-76
2022/01/10 10:03:34;;;;;;;15.80;6.03;;;;;;;2.64;86.48;100768.00;4897520;29;20499;-76
2022/01/10 10:05:59;;;;;;;20.42;6.57;;;;;;;2.74;86.79;100779.44;4897601;29;20520;-76
2022/01/10 10:08:27;;;;;;;17.25;6.22;;;;;;;2.88;86.56;100788.75;4897247;29;20480;-76
2022/01/10 10:10:53;;;;;;;15.38;5.43;;;;;;;2.95;85.75;100787.19;4897198;29;20377;-75
2022/01/10 10:13:19;;;;;;;20.67;5.90;;;;;;;2.96;85.48;100789.72;4897412;29;20032;-75
2022/01/10 10:15:46;;;;;;;14.13;5.63;;;;;;;2.96;85.85;100786.22;4897459;29;20040;-75
2022/01/10 10:18:13;;;;;;;15.60;5.32;;;;;;;2.99;85.83;100792.09;4880713;29;20036;-76
2022/01/10 10:20:43;;;;;;;19.25;6.32;;;;;;;3.09;85.77;100797.34;4897300;29;20037;-76
2022/01/10 10:23:15;;;;;;;18.70;6.32;;;;;;;3.01;85.48;100795.44;4897032;29;20472;-76
2022/01/10 10:25:52;;;;;;;15.30;4.78;;;;;;;2.97;85.37;100796.72;4897609;29;20032;-76
2022/01/10 10:28:18;;;;;;;15.82;5.82;;;;;;;3.01;85.27;100797.25;4897338;29;20108;-76
2022/01/10 10:30:43;;;;;;;11.98;5.45;;;;;;;3.03;85.61;100797.97;4880779;29;20472;-76
2022/01/10 10:33:10;;;;;;;10.77;5.18;;;;;;;3.03;85.43;100792.63;4897173;29;20032;-76
2022/01/10 10:35:37;;;;;;;21.02;6.30;;;;;;;3.04;85.25;100795.16;4882697;29;20056;-75
2022/01/10 10:38:03;;;;;;;21.30;6.35;;;;;;;3.13;86.02;100798.75;4901616;29;20096;-75
2022/01/10 10:40:29;;;;;;;;;;;;;;;3.10;85.36;100791.88;4901726;29;20075;-76
2022/01/10 10:42:58;;;;;;;15.60;5.57;;;;;;;3.22;85.55;100797.88;4901277;29;19911;-76
2022/01/10 10:45:25;;;;;;;16.92;5.82;;;;;;;3.33;84.85;100795.00;4884280;29;20032;-76
2022/01/10 10:47:51;;;;;;;19.38;5.30;;;;;;;3.33;84.81;100796.81;4901003;29;20057;-76
2022/01/10 10:50:17;;;;;;;15.20;5.13;;;;;;;3.42;84.53;100812.72;4884159;29;20399;-76
2022/01/10 10:52:43;;;;;;;;;;;;;;;3.48;84.07;100813.97;4901275;29;20119;-76
2022/01/10 10:55:14;;;;;;;16.05;5.32;;;;;;;3.64;84.39;100816.81;4900624;29;20459;-76
2022/01/10 10:57:41;;;;;;;15.82;5.32;;;;;;;3.74;83.76;100825.59;4900591;29;20025;-76
2022/01/10 11:00:12;;;;;;;18.63;5.78;;;;;;;3.82;83.57;100822.97;4900596;29;20107;-76
2022/01/10 11:02:39;;;;;;;16.08;5.07;;;;;;;3.87;83.40;100829.69;4900832;29;20115;-76
2022/01/10 11:05:06;;;;;;;13.00;4.90;;;;;;;3.83;82.74;100830.00;4900968;29;20060;-76
2022/01/10 11:07:34;;;;;;;18.27;5.25;;;;;;;3.96;83.15;100834.09;4900919;29;20629;-76
2022/01/10 11:10:03;;;;;;;17.48;5.70;;;;;;;4.05;82.51;100839.38;4900913;29;20039;-76
2022/01/10 11:12:29;;;;;;;19.77;5.75;;;;;;;4.05;82.22;100847.38;4900588;29;20444;-76
2022/01/10 11:14:56;;;;;;;17.63;4.90;;;;;;;4.09;82.27;100843.41;4899994;29;20172;-76
2022/01/10 11:17:22;;;;;;;17.42;6.13;;;;;;;4.12;81.83;100836.94;4900525;29;20037;-76
2022/01/10 11:20:09;;;;;;;10.27;4.70;;;;;;;4.19;81.80;100846.00;4900297;29;20033;-75
2022/01/10 11:22:40;;;;;;;17.50;5.22;;;;;;;4.24;81.91;100849.03;4900535;29;20068;-75
2022/01/10 11:25:39;;;;;;;15.90;5.45;;;;;;;4.33;81.69;100842.78;4900084;29;20064;-77
2022/01/10 11:28:10;;;;;;;11.52;4.53;;;;;;;4.36;81.12;100863.81;4900063;29;20040;-76
2022/01/10 11:30:36;;;;;;;10.98;5.00;;;;;;;4.43;80.84;100858.72;4883267;29;20032;-77
2022/01/10 11:33:16;;;;;;;15.07;5.35;;;;;;;4.40;80.51;100857.19;4900231;29;20051;-76
2022/01/10 11:35:45;;;;;;;11.98;4.00;;;;;;;4.38;80.72;100856.50;4900214;29;20036;-76
2022/01/10 11:38:17;;;;;;;12.07;4.45;;;;;;;4.41;80.24;100860.69;4900392;29;20384;-76
2022/01/10 11:40:43;;;;;;;11.43;5.05;;;;;;;4.51;80.27;100878.28;4883477;29;20040;-76
2022/01/10 11:43:08;;;;;;;11.05;4.25;;;;;;;4.49;80.42;100869.59;4900084;29;20048;-76